createdAt,value
2023-06-12T00:00:37.486Z,69.46
2023-06-12T00:01:43.960Z,69.20
2023-06-12T00:02:49.218Z,68.93
2023-06-12T00:03:58.821Z,69.08
2023-06-12T00:05:06.052Z,68.72
2023-06-12T00:06:12.839Z,68.60
2023-06-12T00:07:19.065Z,68.58
2023-06-12T00:08:25.593Z,68.61
2023-06-12T00:09:30.906Z,68.87
2023-06-12T00:10:37.401Z,68.87
2023-06-12T00:11:44.819Z,68.87
2023-06-12T00:12:50.109Z,69.30
2023-06-12T00:13:56.840Z,69.02
2023-06-12T00:15:02.208Z,69.51
2023-06-12T00:16:10.353Z,69.37
2023-06-12T00:17:15.357Z,68.99
2023-06-12T00:18:22.728Z,69.26
2023-06-12T00:19:28.026Z,68.90
2023-06-12T00:20:34.341Z,68.79
2023-06-12T00:21:39.653Z,69.12
2023-06-12T00:22:46.354Z,68.75
2023-06-12T00:23:51.543Z,69.01
2023-06-12T00:24:57.839Z,68.71
2023-06-12T00:26:02.914Z,68.80
2023-06-12T00:27:09.711Z,68.56
2023-06-12T00:28:14.826Z,68.68
2023-06-12T00:29:21.114Z,68.57
2023-06-12T00:30:26.244Z,68.61
2023-06-12T00:31:34.321Z,69.02
2023-06-12T00:32:39.469Z,68.16
2023-06-12T00:33:46.230Z,68.42
2023-06-12T00:34:51.303Z,68.44
2023-06-12T00:35:57.886Z,68.09
2023-06-12T00:37:02.944Z,68.55
2023-06-12T00:38:09.385Z,67.96
2023-06-12T00:39:14.395Z,67.98
2023-06-12T00:40:21.074Z,67.92
2023-06-12T00:41:26.117Z,67.85
2023-06-12T00:42:35.638Z,67.64
2023-06-12T00:43:40.863Z,67.93
2023-06-12T00:44:47.229Z,68.01
2023-06-12T00:45:53.625Z,68.15
2023-06-12T00:47:00.453Z,68.21
2023-06-12T00:48:07.115Z,68.19
2023-06-12T00:49:12.325Z,68.03
2023-06-12T00:50:19.001Z,67.90
2023-06-12T00:51:24.131Z,67.95
2023-06-12T00:52:31.795Z,67.45
2023-06-12T00:53:37.020Z,67.66
2023-06-12T00:54:44.465Z,67.81
2023-06-12T00:55:50.652Z,67.88
2023-06-12T00:56:55.667Z,67.75
2023-06-12T00:58:02.251Z,67.99
2023-06-12T00:59:07.320Z,67.32
2023-06-12T01:00:15.129Z,67.10
2023-06-12T01:01:27.916Z,67.17
2023-06-12T01:02:34.908Z,67.55
2023-06-12T01:03:41.558Z,67.46
2023-06-12T01:04:46.630Z,67.74
2023-06-12T01:05:53.201Z,67.64
2023-06-12T01:07:00.899Z,68.11
2023-06-12T01:08:18.513Z,68.03
2023-06-12T01:09:32.919Z,68.17
2023-06-12T01:10:44.741Z,68.60
2023-06-12T01:11:51.780Z,68.04
2023-06-12T01:12:57.016Z,68.07
2023-06-12T01:14:04.712Z,68.11
2023-06-12T01:15:10.702Z,67.50
2023-06-12T01:16:17.020Z,67.23
2023-06-12T01:17:22.056Z,67.73
2023-06-12T01:18:32.137Z,67.78
2023-06-12T01:19:37.890Z,67.23
2023-06-12T01:20:44.746Z,67.54
2023-06-12T01:21:52.474Z,67.21
2023-06-12T01:23:00.840Z,67.29
2023-06-12T01:24:28.757Z,67.53
2023-06-12T01:26:07.508Z,67.62
2023-06-12T01:27:25.215Z,67.44
2023-06-12T01:28:47.765Z,68.09
2023-06-12T01:30:27.549Z,67.95
2023-06-12T01:31:38.174Z,67.28
2023-06-12T01:32:47.276Z,67.60
2023-06-12T01:33:57.490Z,67.62
2023-06-12T01:35:06.428Z,66.88
2023-06-12T01:36:13.665Z,66.94
2023-06-12T01:37:25.365Z,66.81
2023-06-12T01:38:33.349Z,67.54
2023-06-12T01:39:43.305Z,67.43
2023-06-12T01:40:49.404Z,66.96
2023-06-12T01:41:56.123Z,66.88
2023-06-12T01:43:01.133Z,66.75
2023-06-12T01:44:13.734Z,67.72
2023-06-12T01:45:18.760Z,66.72
2023-06-12T01:46:25.493Z,66.88
2023-06-12T01:47:30.528Z,66.71
2023-06-12T01:48:38.421Z,66.99
2023-06-12T01:49:43.424Z,66.71
2023-06-12T01:50:49.908Z,66.54
2023-06-12T01:51:54.841Z,66.74
2023-06-12T01:53:01.156Z,66.93
2023-06-12T01:54:06.385Z,67.16
2023-06-12T01:55:13.373Z,66.59
2023-06-12T01:56:19.951Z,66.52
2023-06-12T01:57:26.262Z,67.09
2023-06-12T01:58:31.341Z,67.10
2023-06-12T01:59:38.201Z,67.17
2023-06-12T02:00:43.533Z,66.47
2023-06-12T02:01:49.888Z,67.04
2023-06-12T02:02:57.112Z,66.88
2023-06-12T02:04:05.510Z,67.03
2023-06-12T02:05:11.176Z,66.93
2023-06-12T02:06:18.270Z,66.23
2023-06-12T02:07:23.510Z,66.97
2023-06-12T02:08:29.760Z,66.50
2023-06-12T02:09:34.845Z,66.73
2023-06-12T02:10:41.203Z,66.22
2023-06-12T02:11:46.364Z,66.82
2023-06-12T02:12:52.619Z,66.84
2023-06-12T02:13:58.201Z,66.92
2023-06-12T02:15:04.715Z,66.62
2023-06-12T02:16:10.734Z,66.61
2023-06-12T02:17:20.298Z,66.95
2023-06-12T02:18:25.501Z,66.29
2023-06-12T02:19:35.273Z,66.60
2023-06-12T02:20:41.772Z,66.65
2023-06-12T02:21:47.121Z,66.18
2023-06-12T02:22:53.610Z,66.27
2023-06-12T02:23:58.799Z,66.49
2023-06-12T02:25:06.087Z,66.02
2023-06-12T02:26:11.345Z,66.41
2023-06-12T02:27:17.842Z,66.55
2023-06-12T02:28:23.089Z,66.51
2023-06-12T02:29:29.658Z,65.94
2023-06-12T02:30:34.883Z,65.94
2023-06-12T02:31:41.483Z,66.04
2023-06-12T02:32:46.854Z,65.92
2023-06-12T02:33:53.301Z,66.26
2023-06-12T02:35:03.280Z,66.60
2023-06-12T02:36:11.040Z,66.37
2023-06-12T02:37:16.720Z,65.67
2023-06-12T02:38:23.189Z,65.66
2023-06-12T02:39:28.558Z,65.57
2023-06-12T02:40:35.159Z,66.03
2023-06-12T02:41:40.566Z,65.24
2023-06-12T02:42:47.144Z,65.76
2023-06-12T02:43:52.576Z,65.53
2023-06-12T02:44:59.030Z,65.48
2023-06-12T02:46:04.259Z,65.48
2023-06-12T02:47:11.331Z,65.36
2023-06-12T02:48:16.592Z,65.73
2023-06-12T02:49:23.193Z,65.12
2023-06-12T02:50:31.373Z,64.90
2023-06-12T02:51:36.666Z,64.79
2023-06-12T02:52:43.752Z,64.75
2023-06-12T02:53:49.009Z,64.92
2023-06-12T02:54:55.521Z,64.55
2023-06-12T02:56:00.851Z,64.42
2023-06-12T02:57:07.548Z,64.46
2023-06-12T02:58:16.120Z,64.96
2023-06-12T02:59:24.515Z,64.53
2023-06-12T03:00:31.101Z,64.72
2023-06-12T03:01:36.769Z,64.14
2023-06-12T03:02:45.304Z,64.78
2023-06-12T03:03:51.105Z,64.63
2023-06-12T03:04:57.735Z,64.56
2023-06-12T03:06:04.941Z,64.63
2023-06-12T03:07:11.503Z,64.73
2023-06-12T03:08:19.128Z,64.67
2023-06-12T03:09:26.291Z,63.95
2023-06-12T03:10:31.632Z,63.49
2023-06-12T03:11:38.142Z,63.37
2023-06-12T03:12:43.361Z,63.39
2023-06-12T03:13:50.638Z,63.61
2023-06-12T03:14:56.260Z,62.87
2023-06-12T03:16:02.678Z,63.43
2023-06-12T03:17:08.518Z,63.69
2023-06-12T03:18:15.032Z,63.25
2023-06-12T03:19:20.510Z,62.71
2023-06-12T03:20:28.161Z,63.44
2023-06-12T03:21:35.030Z,63.47
2023-06-12T03:22:41.551Z,63.32
2023-06-12T03:23:46.737Z,63.74
2023-06-12T03:24:56.149Z,63.33
2023-06-12T03:26:01.352Z,63.27
2023-06-12T03:27:08.589Z,63.60
2023-06-12T03:28:13.887Z,63.27
2023-06-12T03:29:20.572Z,63.37
2023-06-12T03:30:25.893Z,63.36
2023-06-12T03:31:32.584Z,63.64
2023-06-12T03:32:38.038Z,63.70
2023-06-12T03:33:44.744Z,63.36
2023-06-12T03:34:50.059Z,63.40
2023-06-12T03:35:56.599Z,63.27
2023-06-12T03:37:04.919Z,63.49
2023-06-12T03:38:10.251Z,63.51
2023-06-12T03:39:16.879Z,63.41
2023-06-12T03:40:22.262Z,63.28
2023-06-12T03:41:29.741Z,63.72
2023-06-12T03:42:35.062Z,63.48
2023-06-12T03:43:41.811Z,63.47
2023-06-12T03:44:47.244Z,63.25
2023-06-12T03:45:53.854Z,64.01
2023-06-12T03:47:00.430Z,63.61
2023-06-12T03:48:06.332Z,63.75
2023-06-12T03:49:12.985Z,63.70
2023-06-12T03:50:19.665Z,63.86
2023-06-12T03:51:26.107Z,63.59
2023-06-12T03:52:33.218Z,62.85
2023-06-12T03:53:39.849Z,62.79
2023-06-12T03:54:45.045Z,63.29
2023-06-12T03:55:51.750Z,62.72
2023-06-12T03:56:56.986Z,62.79
2023-06-12T03:58:03.615Z,62.58
2023-06-12T03:59:08.965Z,63.40
2023-06-12T04:00:16.257Z,62.67
2023-06-12T04:01:21.512Z,62.61
2023-06-12T04:02:28.361Z,62.80
2023-06-12T04:03:37.187Z,62.45
2023-06-12T04:04:42.593Z,62.30
2023-06-12T04:05:49.755Z,60.79
2023-06-12T04:06:55.714Z,61.67
2023-06-12T04:08:04.064Z,61.24
2023-06-12T04:09:10.488Z,61.82
2023-06-12T04:10:16.983Z,61.46
2023-06-12T04:11:22.254Z,61.87
2023-06-12T04:12:29.080Z,61.94
2023-06-12T04:13:34.372Z,60.52
2023-06-12T04:14:41.559Z,61.36
2023-06-12T04:15:47.302Z,61.66
2023-06-12T04:16:54.002Z,61.17
2023-06-12T04:18:00.308Z,60.43
2023-06-12T04:19:07.133Z,58.58
2023-06-12T04:20:14.505Z,59.65
2023-06-12T04:21:22.733Z,60.53
2023-06-12T04:22:30.612Z,60.70
2023-06-12T04:23:40.000Z,60.37
2023-06-12T04:24:46.672Z,59.79
2023-06-12T04:25:53.238Z,59.50
2023-06-12T04:27:03.492Z,59.17
2023-06-12T04:28:10.698Z,59.87
2023-06-12T04:29:17.774Z,58.89
2023-06-12T04:30:24.171Z,58.04
2023-06-12T04:31:31.385Z,58.32
2023-06-12T04:32:36.996Z,57.52
2023-06-12T04:33:43.692Z,58.92
2023-06-12T04:34:48.876Z,58.89
2023-06-12T04:35:55.350Z,58.17
2023-06-12T04:37:00.587Z,57.03
2023-06-12T04:38:07.736Z,56.61
2023-06-12T04:39:16.406Z,58.14
2023-06-12T04:40:27.708Z,58.80
2023-06-12T04:41:35.411Z,58.52
2023-06-12T04:42:42.010Z,57.66
2023-06-12T04:43:47.301Z,58.49
2023-06-12T04:44:53.895Z,57.85
2023-06-12T04:45:59.172Z,58.47
2023-06-12T04:47:07.609Z,58.19
2023-06-12T04:48:13.882Z,57.73
2023-06-12T04:49:20.506Z,57.62
2023-06-12T04:50:26.309Z,57.93
2023-06-12T04:51:32.952Z,56.56
2023-06-12T04:52:38.188Z,57.84
2023-06-12T04:53:46.366Z,58.09
2023-06-12T04:54:54.865Z,57.62
2023-06-12T04:56:03.348Z,57.41
2023-06-12T04:57:10.947Z,57.59
2023-06-12T04:58:18.425Z,57.51
2023-06-12T04:59:24.955Z,57.05
2023-06-12T05:00:31.582Z,57.36
2023-06-12T05:01:37.063Z,57.25
2023-06-12T05:02:43.833Z,57.26
2023-06-12T05:03:49.234Z,56.71
2023-06-12T05:04:55.886Z,57.53
2023-06-12T05:06:01.199Z,57.20
2023-06-12T05:07:09.012Z,57.29
2023-06-12T05:08:14.687Z,57.17
2023-06-12T05:09:22.292Z,57.47
2023-06-12T05:10:29.326Z,56.76
2023-06-12T05:11:35.941Z,57.30
2023-06-12T05:12:41.299Z,56.86
2023-06-12T05:13:50.952Z,56.49
2023-06-12T05:14:56.379Z,57.29
2023-06-12T05:16:02.935Z,57.03
2023-06-12T05:17:08.682Z,57.31
2023-06-12T05:18:15.229Z,57.03
2023-06-12T05:19:20.469Z,55.56
2023-06-12T05:20:27.249Z,56.74
2023-06-12T05:21:32.575Z,56.48
2023-06-12T05:22:40.223Z,56.55
2023-06-12T05:23:46.907Z,56.18
2023-06-12T05:24:52.280Z,56.74
2023-06-12T05:26:00.733Z,55.61
2023-06-12T05:27:06.440Z,55.88
2023-06-12T05:28:13.977Z,56.07
2023-06-12T05:29:19.668Z,56.50
2023-06-12T05:30:26.245Z,56.77
2023-06-12T05:31:31.684Z,56.69
2023-06-12T05:32:38.599Z,56.66
2023-06-12T05:33:44.236Z,57.17
2023-06-12T05:34:51.046Z,56.77
2023-06-12T05:35:56.414Z,57.36
2023-06-12T05:37:03.086Z,56.08
2023-06-12T05:38:09.393Z,57.02
2023-06-12T05:39:16.387Z,56.39
2023-06-12T05:40:21.744Z,57.64
2023-06-12T05:41:30.075Z,58.50
2023-06-12T05:42:36.847Z,57.78
2023-06-12T05:43:42.640Z,58.30
2023-06-12T05:44:49.324Z,58.94
2023-06-12T05:45:54.596Z,59.82
2023-06-12T05:47:01.155Z,60.11
2023-06-12T05:48:07.447Z,60.93
2023-06-12T05:49:14.370Z,61.05
2023-06-12T05:50:21.039Z,61.39
2023-06-12T05:51:26.607Z,61.81
2023-06-12T05:52:33.208Z,61.93
2023-06-12T05:53:38.750Z,63.08
2023-06-12T05:54:45.366Z,63.53
2023-06-12T05:55:50.690Z,63.60
2023-06-12T05:56:58.979Z,64.00
2023-06-12T05:58:06.475Z,63.86
2023-06-12T05:59:13.618Z,64.41
2023-06-12T06:00:20.199Z,64.13
2023-06-12T06:01:27.831Z,64.08
2023-06-12T06:02:33.709Z,63.44
2023-06-12T06:03:45.158Z,63.69
2023-06-12T06:04:56.279Z,63.98
2023-06-12T06:06:01.738Z,64.08
2023-06-12T06:07:17.658Z,64.18
2023-06-12T06:08:25.126Z,64.23
2023-06-12T06:09:30.410Z,63.90
2023-06-12T06:10:36.984Z,63.78
2023-06-12T06:11:43.549Z,63.65
2023-06-12T06:12:50.540Z,63.98
2023-06-12T06:13:57.936Z,64.93
2023-06-12T06:15:04.528Z,63.71
2023-06-12T06:16:11.340Z,63.54
2023-06-12T06:17:16.820Z,63.59
2023-06-12T06:18:23.585Z,63.17
2023-06-12T06:19:29.022Z,63.35
2023-06-12T06:20:36.115Z,63.03
2023-06-12T06:21:41.438Z,62.96
2023-06-12T06:22:48.026Z,62.28
2023-06-12T06:23:53.504Z,61.98
2023-06-12T06:25:00.204Z,61.91
2023-06-12T06:26:08.273Z,61.64
2023-06-12T06:27:14.106Z,61.35
2023-06-12T06:28:22.335Z,61.07
2023-06-12T06:29:28.927Z,61.59
2023-06-12T06:30:35.652Z,60.66
2023-06-12T06:31:41.030Z,60.88
2023-06-12T06:32:49.217Z,60.61
2023-06-12T06:33:55.917Z,60.16
2023-06-12T06:35:01.224Z,60.08
2023-06-12T06:36:08.478Z,59.20
2023-06-12T06:37:13.783Z,59.35
2023-06-12T06:38:23.727Z,59.71
2023-06-12T06:39:29.091Z,59.42
2023-06-12T06:40:35.862Z,59.63
2023-06-12T06:41:42.539Z,59.54
2023-06-12T06:42:49.004Z,58.51
2023-06-12T06:43:57.284Z,58.88
2023-06-12T06:45:02.701Z,59.76
2023-06-12T06:46:09.513Z,59.50
2023-06-12T06:47:15.026Z,59.54
2023-06-12T06:48:21.786Z,59.66
2023-06-12T06:49:28.829Z,59.95
2023-06-12T06:50:36.380Z,59.82
2023-06-12T06:51:43.010Z,59.01
2023-06-12T06:52:48.313Z,59.52
2023-06-12T06:53:55.083Z,59.72
2023-06-12T06:55:01.603Z,59.51
2023-06-12T06:56:08.501Z,59.51
2023-06-12T06:57:14.734Z,59.67
2023-06-12T06:58:21.649Z,59.91
2023-06-12T06:59:30.019Z,59.53
2023-06-12T07:00:36.697Z,59.60
2023-06-12T07:01:43.481Z,59.64
2023-06-12T07:02:48.815Z,59.85
2023-06-12T07:03:55.576Z,59.80
2023-06-12T07:05:00.907Z,59.45
2023-06-12T07:06:07.578Z,59.32
2023-06-12T07:07:12.809Z,59.44
2023-06-12T07:08:19.679Z,59.45
2023-06-12T07:09:27.349Z,58.38
2023-06-12T07:10:33.971Z,58.80
2023-06-12T07:11:39.244Z,58.77
2023-06-12T07:12:46.166Z,58.17
2023-06-12T07:13:53.658Z,58.48
2023-06-12T07:15:01.063Z,58.67
2023-06-12T07:16:07.721Z,58.68
2023-06-12T07:17:12.936Z,58.01
2023-06-12T07:18:19.633Z,58.42
2023-06-12T07:19:24.777Z,58.26
2023-06-12T07:20:31.145Z,57.89
2023-06-12T07:21:38.222Z,58.05
2023-06-12T07:22:43.358Z,58.05
2023-06-12T07:23:49.894Z,57.18
2023-06-12T07:24:56.552Z,58.32
2023-06-12T07:26:14.628Z,57.96
2023-06-12T07:27:30.111Z,57.99
2023-06-12T07:28:36.945Z,57.88
2023-06-12T07:29:42.081Z,57.72
2023-06-12T07:30:50.371Z,57.75
2023-06-12T07:31:55.585Z,57.71
2023-06-12T07:33:02.204Z,57.84
2023-06-12T07:34:08.087Z,57.54
2023-06-12T07:35:15.055Z,57.88
2023-06-12T07:36:21.744Z,57.98
2023-06-12T07:37:26.913Z,56.61
2023-06-12T07:38:33.714Z,57.17
2023-06-12T07:39:39.142Z,57.77
2023-06-12T07:40:45.527Z,58.10
2023-06-12T07:41:52.170Z,57.44
2023-06-12T07:42:58.835Z,58.01
2023-06-12T07:44:04.000Z,58.28
2023-06-12T07:45:12.082Z,58.02
2023-06-12T07:46:19.695Z,58.02
2023-06-12T07:47:26.156Z,56.76
2023-06-12T07:48:31.450Z,58.02
2023-06-12T07:49:37.918Z,58.12
2023-06-12T07:50:45.005Z,57.77
2023-06-12T07:51:53.958Z,57.96
2023-06-12T07:53:00.769Z,57.90
2023-06-12T07:54:07.288Z,57.50
2023-06-12T07:55:13.066Z,57.75
2023-06-12T07:56:20.469Z,57.58
2023-06-12T07:57:27.026Z,57.46
2023-06-12T07:58:33.504Z,57.49
2023-06-12T07:59:39.926Z,57.26
2023-06-12T08:00:46.525Z,57.45
2023-06-12T08:01:55.399Z,57.24
2023-06-12T08:03:04.544Z,57.46
2023-06-12T08:04:18.342Z,57.56
2023-06-12T08:05:23.535Z,57.39
2023-06-12T08:06:29.910Z,57.14
2023-06-12T08:07:35.796Z,57.58
2023-06-12T08:08:46.138Z,56.38
2023-06-12T08:09:52.885Z,57.64
2023-06-12T08:11:00.164Z,57.83
2023-06-12T08:12:06.761Z,57.80
2023-06-12T08:13:13.710Z,57.87
2023-06-12T08:14:20.256Z,57.97
2023-06-12T08:15:26.787Z,58.01
2023-06-12T08:16:34.151Z,57.93
2023-06-12T08:17:44.768Z,57.59
2023-06-12T08:18:51.369Z,57.71
2023-06-12T08:19:57.864Z,56.89
2023-06-12T08:21:04.437Z,57.62
2023-06-12T08:22:11.621Z,57.37
2023-06-12T08:23:16.704Z,57.16
2023-06-12T08:24:23.329Z,56.97
2023-06-12T08:25:29.859Z,56.96
2023-06-12T08:26:34.986Z,56.51
2023-06-12T08:27:41.337Z,56.67
2023-06-12T08:28:46.772Z,56.45
2023-06-12T08:29:53.135Z,56.56
2023-06-12T08:31:00.403Z,56.36
2023-06-12T08:32:06.962Z,56.51
2023-06-12T08:33:13.939Z,56.53
2023-06-12T08:34:20.413Z,56.12
2023-06-12T08:35:26.624Z,56.08
2023-06-12T08:36:31.837Z,55.69
2023-06-12T08:37:38.353Z,55.88
2023-06-12T08:38:43.569Z,55.72
2023-06-12T08:39:50.294Z,56.16
2023-06-12T08:40:57.482Z,55.83
2023-06-12T08:42:07.523Z,56.17
2023-06-12T08:43:14.230Z,54.58
2023-06-12T08:44:20.957Z,55.29
2023-06-12T08:45:30.870Z,53.03
2023-06-12T08:46:37.498Z,55.32
2023-06-12T08:47:44.280Z,54.95
2023-06-12T08:48:53.112Z,54.95
2023-06-12T08:49:59.654Z,55.62
2023-06-12T08:51:05.829Z,55.50
2023-06-12T08:52:12.846Z,55.97
2023-06-12T08:53:18.594Z,56.38
2023-06-12T08:54:27.964Z,56.82
2023-06-12T08:55:35.136Z,56.40
2023-06-12T08:56:43.192Z,56.94
2023-06-12T08:57:50.187Z,56.74
2023-06-12T08:58:55.441Z,56.28
2023-06-12T09:00:01.894Z,56.64
2023-06-12T09:01:07.894Z,56.41
2023-06-12T09:02:15.594Z,56.87
2023-06-12T09:03:22.403Z,56.15
2023-06-12T09:04:39.940Z,54.79
2023-06-12T09:05:48.319Z,56.64
2023-06-12T09:06:54.992Z,56.74
2023-06-12T09:08:02.992Z,55.68
2023-06-12T09:09:09.640Z,55.86
2023-06-12T09:10:15.441Z,55.28
2023-06-12T09:11:22.091Z,56.26
2023-06-12T09:12:28.866Z,56.36
2023-06-12T09:13:45.479Z,55.46
2023-06-12T09:14:53.516Z,56.41
2023-06-12T09:15:59.136Z,56.24
2023-06-12T09:17:05.746Z,56.36
2023-06-12T09:18:15.175Z,56.35
2023-06-12T09:19:20.554Z,55.95
2023-06-12T09:20:42.472Z,54.98
2023-06-12T09:21:52.621Z,56.26
2023-06-12T09:22:59.349Z,56.07
2023-06-12T09:24:05.827Z,56.27
2023-06-12T09:25:12.095Z,56.29
2023-06-12T09:26:19.523Z,56.50
2023-06-12T09:27:24.899Z,56.87
2023-06-12T09:28:33.996Z,56.77
2023-06-12T09:29:41.654Z,56.59
2023-06-12T09:30:47.131Z,56.59
2023-06-12T09:31:55.934Z,55.98
2023-06-12T09:33:05.644Z,56.34
2023-06-12T09:34:11.406Z,55.56
2023-06-12T09:35:17.812Z,56.49
2023-06-12T09:36:24.876Z,55.92
2023-06-12T09:37:31.782Z,56.40
2023-06-12T09:38:38.019Z,55.06
2023-06-12T09:39:44.531Z,55.95
2023-06-12T09:40:59.120Z,55.13
2023-06-12T09:42:06.823Z,55.73
2023-06-12T09:43:11.967Z,56.41
2023-06-12T09:44:18.482Z,56.33
2023-06-12T09:45:25.858Z,56.70
2023-06-12T09:46:33.307Z,56.42
2023-06-12T09:47:43.728Z,55.66
2023-06-12T09:48:50.242Z,56.46
2023-06-12T09:49:55.395Z,56.58
2023-06-12T09:51:02.360Z,56.19
2023-06-12T09:52:11.041Z,56.04
2023-06-12T09:53:19.679Z,55.84
2023-06-12T09:54:27.344Z,56.15
2023-06-12T09:55:34.479Z,56.07
2023-06-12T09:56:42.193Z,55.66
2023-06-12T09:57:49.635Z,56.20
2023-06-12T09:58:56.349Z,55.81
2023-06-12T10:00:03.654Z,54.75
2023-06-12T10:01:11.047Z,55.96
2023-06-12T10:02:19.879Z,55.31
2023-06-12T10:03:28.779Z,55.90
2023-06-12T10:04:40.925Z,55.67
2023-06-12T10:05:51.397Z,55.67
2023-06-12T10:07:03.730Z,55.42
2023-06-12T10:08:12.830Z,56.02
2023-06-12T10:09:19.578Z,55.93
2023-06-12T10:10:26.709Z,55.94
2023-06-12T10:11:33.804Z,55.94
2023-06-12T10:12:39.609Z,56.04
2023-06-12T10:13:46.120Z,56.22
2023-06-12T10:14:52.393Z,55.98
2023-06-12T10:15:59.086Z,56.34
2023-06-12T10:17:05.048Z,56.75
2023-06-12T10:18:12.395Z,56.36
2023-06-12T10:19:20.130Z,56.62
2023-06-12T10:20:28.844Z,56.72
2023-06-12T10:21:35.946Z,56.56
2023-06-12T10:22:42.784Z,56.73
2023-06-12T10:23:51.040Z,57.06
2023-06-12T10:24:56.572Z,57.29
2023-06-12T10:26:03.486Z,57.00
2023-06-12T10:27:09.504Z,57.51
2023-06-12T10:28:16.155Z,57.40
2023-06-12T10:29:34.129Z,58.03
2023-06-12T10:30:41.051Z,57.61
2023-06-12T10:31:47.627Z,57.45
2023-06-12T10:32:54.124Z,57.62
2023-06-12T10:34:14.844Z,57.36
2023-06-12T10:35:33.075Z,55.84
2023-06-12T10:36:45.274Z,57.08
2023-06-12T10:37:51.806Z,57.32
2023-06-12T10:39:07.015Z,56.87
2023-06-12T10:40:24.087Z,57.05
2023-06-12T10:41:41.352Z,56.93
2023-06-12T10:42:52.125Z,56.73
2023-06-12T10:44:00.715Z,56.53
2023-06-12T10:45:09.160Z,57.01
2023-06-12T10:46:16.258Z,56.26
2023-06-12T10:47:22.685Z,57.10
2023-06-12T10:48:30.091Z,57.01
2023-06-12T10:49:59.214Z,56.69
2023-06-12T10:51:06.210Z,56.58
2023-06-12T10:52:24.395Z,55.81
2023-06-12T10:53:33.300Z,56.92
2023-06-12T10:54:40.255Z,56.49
2023-06-12T10:55:47.153Z,56.70
2023-06-12T10:57:05.766Z,55.63
2023-06-12T10:58:14.994Z,56.70
2023-06-12T10:59:21.459Z,56.52
2023-06-12T11:00:31.027Z,56.18
2023-06-12T11:01:44.088Z,55.51
2023-06-12T11:02:50.145Z,56.32
2023-06-12T11:03:56.966Z,55.58
2023-06-12T11:05:07.006Z,56.06
2023-06-12T11:06:18.821Z,55.81
2023-06-12T11:07:24.269Z,56.30
2023-06-12T11:08:33.116Z,55.86
2023-06-12T11:09:46.992Z,55.39
2023-06-12T11:10:53.392Z,56.29
2023-06-12T11:11:58.598Z,56.00
2023-06-12T11:13:05.371Z,55.89
2023-06-12T11:14:10.698Z,55.90
2023-06-12T11:15:17.220Z,55.79
2023-06-12T11:16:27.257Z,55.89
2023-06-12T11:17:32.481Z,55.86
2023-06-12T11:18:38.869Z,55.90
2023-06-12T11:19:44.093Z,55.90
2023-06-12T11:20:56.389Z,55.98
2023-06-12T11:22:02.937Z,56.35
2023-06-12T11:23:08.154Z,56.34
2023-06-12T11:24:15.096Z,56.34
2023-06-12T11:25:22.179Z,55.68
2023-06-12T11:26:29.840Z,56.39
2023-06-12T11:27:35.033Z,56.06
2023-06-12T11:28:41.502Z,56.30
2023-06-12T11:30:01.981Z,55.42
2023-06-12T11:31:14.091Z,56.31
2023-06-12T11:32:20.547Z,55.57
2023-06-12T11:33:27.316Z,55.77
2023-06-12T11:34:40.901Z,56.31
2023-06-12T11:35:50.151Z,56.39
2023-06-12T11:36:55.437Z,56.75
2023-06-12T11:40:33.474Z,56.96
2023-06-12T11:41:38.747Z,56.89
2023-06-12T11:42:46.120Z,56.98
2023-06-12T11:43:52.469Z,56.85
2023-06-12T11:44:58.115Z,56.71
2023-06-12T11:46:06.947Z,56.70
2023-06-12T11:49:31.487Z,56.88
2023-06-12T11:50:38.768Z,57.03
2023-06-12T11:51:43.896Z,57.04
2023-06-12T11:52:50.554Z,57.52
2023-06-12T11:53:55.681Z,57.25
2023-06-12T11:57:22.532Z,57.27
2023-06-12T11:58:36.818Z,57.25
2023-06-12T11:59:44.082Z,57.71
2023-06-12T12:00:51.848Z,57.52
2023-06-12T12:02:02.224Z,57.40
2023-06-12T12:03:12.438Z,57.47
2023-06-12T12:04:19.872Z,57.72
2023-06-12T12:05:27.658Z,57.75
2023-06-12T12:06:33.877Z,57.72
2023-06-12T12:07:41.844Z,57.51
2023-06-12T12:08:47.315Z,57.74
2023-06-12T12:09:53.923Z,57.54
2023-06-12T12:11:00.443Z,57.85
2023-06-12T12:12:12.966Z,57.69
2023-06-12T12:13:19.681Z,57.73
2023-06-12T12:14:26.851Z,57.66
2023-06-12T12:15:34.205Z,57.85
2023-06-12T12:16:43.034Z,57.93
2023-06-12T12:17:51.960Z,58.02
2023-06-12T12:18:57.788Z,58.33
2023-06-12T12:20:07.675Z,57.57
2023-06-12T12:21:18.604Z,58.12
2023-06-12T12:22:23.713Z,57.88
2023-06-12T12:23:30.350Z,58.45
2023-06-12T12:24:39.389Z,58.14
2023-06-12T12:25:46.886Z,58.50
2023-06-12T12:26:53.717Z,58.01
2023-06-12T12:28:04.934Z,58.16
2023-06-12T12:29:10.363Z,58.40
2023-06-12T12:30:20.954Z,58.25
2023-06-12T12:31:26.290Z,58.56
2023-06-12T12:32:32.631Z,58.29
2023-06-12T12:33:39.098Z,58.48
2023-06-12T12:34:44.143Z,58.38
2023-06-12T12:35:50.504Z,58.11
2023-06-12T12:36:55.573Z,58.25
2023-06-12T12:38:02.917Z,58.00
2023-06-12T12:39:09.507Z,58.23
2023-06-12T12:40:16.733Z,58.30
2023-06-12T12:41:23.253Z,58.09
2023-06-12T12:42:28.807Z,58.50
2023-06-12T12:43:37.088Z,58.06
2023-06-12T12:44:42.356Z,58.60
2023-06-12T12:45:48.803Z,58.62
2023-06-12T12:46:54.186Z,58.35
2023-06-12T12:48:02.516Z,58.16
2023-06-12T12:49:09.244Z,58.31
2023-06-12T12:50:21.367Z,58.09
2023-06-12T12:51:29.320Z,58.55
2023-06-12T12:52:38.502Z,58.14
2023-06-12T12:53:46.346Z,58.16
2023-06-12T12:54:53.498Z,58.20
2023-06-12T12:56:00.819Z,58.71
2023-06-12T12:57:07.717Z,58.71
2023-06-12T12:58:18.399Z,58.69
2023-06-12T12:59:25.704Z,58.57
2023-06-12T13:00:32.010Z,58.81
2023-06-12T13:01:37.650Z,57.93
2023-06-12T13:02:45.790Z,58.50
2023-06-12T13:03:58.244Z,58.77
2023-06-12T13:05:03.520Z,58.65
2023-06-12T13:06:13.302Z,58.33
2023-06-12T13:07:20.605Z,59.09
2023-06-12T13:08:26.908Z,59.11
2023-06-12T13:09:33.261Z,59.15
2023-06-12T13:10:39.825Z,59.13
2023-06-12T13:11:44.941Z,59.07
2023-06-12T13:12:51.545Z,59.14
2023-06-12T13:13:56.700Z,59.28
2023-06-12T13:15:05.578Z,58.44
2023-06-12T13:16:12.871Z,58.79
2023-06-12T13:17:18.138Z,59.32
2023-06-12T13:18:24.762Z,59.30
2023-06-12T13:19:30.740Z,58.90
2023-06-12T13:20:37.789Z,59.20
2023-06-12T13:21:45.266Z,58.62
2023-06-12T13:22:51.833Z,59.23
2023-06-12T13:23:57.266Z,59.00
2023-06-12T13:25:03.955Z,58.75
2023-06-12T13:26:11.111Z,59.20
2023-06-12T13:27:17.785Z,59.11
2023-06-12T13:28:25.169Z,58.99
2023-06-12T13:29:30.605Z,58.84
2023-06-12T13:30:38.907Z,59.33
2023-06-12T13:31:45.394Z,59.45
2023-06-12T13:32:52.154Z,59.06
2023-06-12T13:33:58.747Z,59.21
2023-06-12T13:35:04.023Z,58.99
2023-06-12T13:36:11.601Z,59.25
2023-06-12T13:37:18.057Z,59.23
2023-06-12T13:38:24.516Z,59.49
2023-06-12T13:39:31.148Z,59.58
2023-06-12T13:40:37.794Z,59.07
2023-06-12T13:41:44.476Z,59.71
2023-06-12T13:42:51.243Z,59.67
2023-06-12T13:43:57.881Z,59.74
2023-06-12T13:45:06.959Z,59.83
2023-06-12T13:46:14.232Z,59.68
2023-06-12T13:47:20.953Z,59.91
2023-06-12T13:48:27.459Z,59.38
2023-06-12T13:49:34.472Z,59.99
2023-06-12T13:50:42.152Z,59.80
2023-06-12T13:51:48.639Z,59.39
2023-06-12T13:52:54.208Z,59.64
2023-06-12T13:54:00.762Z,59.70
2023-06-12T13:55:07.522Z,59.60
2023-06-12T13:56:14.145Z,60.02
2023-06-12T13:57:20.630Z,60.39
2023-06-12T13:58:25.891Z,59.76
2023-06-12T13:59:33.354Z,60.32
2023-06-12T14:00:40.102Z,60.54
2023-06-12T14:01:51.853Z,60.45
2023-06-12T14:02:57.085Z,60.90
2023-06-12T14:04:05.414Z,61.55
2023-06-12T14:05:11.686Z,60.33
2023-06-12T14:06:18.357Z,61.18
2023-06-12T14:07:23.794Z,61.05
2023-06-12T14:08:30.375Z,61.54
2023-06-12T14:09:35.527Z,62.89
2023-06-12T14:10:43.574Z,61.90
2023-06-12T14:11:50.165Z,62.81
2023-06-12T14:12:55.935Z,61.73
2023-06-12T14:14:02.594Z,62.05
2023-06-12T14:15:09.272Z,62.84
2023-06-12T14:16:16.322Z,62.37
2023-06-12T14:17:24.724Z,64.23
2023-06-12T14:18:31.556Z,63.22
2023-06-12T14:19:38.582Z,63.53
2023-06-12T14:20:45.051Z,64.00
2023-06-12T14:21:50.424Z,63.72
2023-06-12T14:22:56.953Z,63.89
2023-06-12T14:24:05.025Z,63.83
2023-06-12T14:25:12.666Z,63.81
2023-06-12T14:26:19.661Z,63.81
2023-06-12T14:27:26.212Z,63.55
2023-06-12T14:28:32.943Z,64.55
2023-06-12T14:29:39.486Z,63.49
2023-06-12T14:30:45.981Z,65.05
2023-06-12T14:31:52.546Z,64.82
2023-06-12T14:32:59.905Z,65.45
2023-06-12T14:34:06.643Z,65.29